EmailTwitter


Observations de surface / France / LFBO (07630)

Régions: Québec | Canada | États-Unis | Europe | France | UK | Ailleurs
Station
Affichage
Infos & localisation pour LFBO (07630) | Aide pour décoder les METARs

Observations prises le 2017-08-17 à 03H30 UTC à TOULOUSE/BLAGNAC, FR (LFBO)

Etat du ciel: partiellement nuageux.

Température: 19.0 Celsius

Point de rosée: 17.0 Celsius

Humidité relative: 88%

Indice Humidex: 24.

Vents: Calme à 0 km/h ou 0 noeuds.

Pression au niveau moyen de la mer: 102.10 kilopascals.

Visibilité horizontale: 6.21 milles terrestres ou 9.94 kilomètres.

Hauteur du plafond: 1280 mètres ( 4200 pieds ).

Observation METAR:

LFBO 170330Z AUTO 00000KT 9999 BKN042 19/17 Q1021 NOSIG=